sensor_id;sensor_type;location;lat;lon;timestamp;pressure;altitude;pressure_sealevel;temperature;humidity
56582;BME280;42463;52.214;21.238;2022-10-24T00:00:21;100463.11;;;12.85;73.34
56582;BME280;42463;52.214;21.238;2022-10-24T00:03:06;100464.04;;;12.83;73.11
56582;BME280;42463;52.214;21.238;2022-10-24T00:05:30;100463.21;;;12.81;73.32
56582;BME280;42463;52.214;21.238;2022-10-24T00:07:54;100459.35;;;12.80;73.41
56582;BME280;42463;52.214;21.238;2022-10-24T00:10:19;100460.55;;;12.79;73.38
56582;BME280;42463;52.214;21.238;2022-10-24T00:12:44;100458.69;;;12.77;73.22
56582;BME280;42463;52.214;21.238;2022-10-24T00:15:09;100458.14;;;12.75;73.31
56582;BME280;42463;52.214;21.238;2022-10-24T00:17:34;100455.73;;;12.75;73.49
56582;BME280;42463;52.214;21.238;2022-10-24T00:19:59;100456.71;;;12.73;73.44
56582;BME280;42463;52.214;21.238;2022-10-24T00:22:23;100461.23;;;12.72;73.17
56582;BME280;42463;52.214;21.238;2022-10-24T00:24:48;100459.70;;;12.71;73.37
56582;BME280;42463;52.214;21.238;2022-10-24T00:27:13;100464.86;;;12.69;73.42
56582;BME280;42463;52.214;21.238;2022-10-24T00:29:37;100463.23;;;12.68;73.51
56582;BME280;42463;52.214;21.238;2022-10-24T00:32:01;100462.31;;;12.68;73.74
56582;BME280;42463;52.214;21.238;2022-10-24T00:34:25;100467.16;;;12.71;74.06
56582;BME280;42463;52.214;21.238;2022-10-24T00:36:50;100474.40;;;12.71;74.04
56582;BME280;42463;52.214;21.238;2022-10-24T00:39:15;100471.90;;;12.72;74.02
56582;BME280;42463;52.214;21.238;2022-10-24T00:41:40;100471.15;;;12.74;74.10
56582;BME280;42463;52.214;21.238;2022-10-24T00:44:21;100470.10;;;12.73;73.92
56582;BME280;42463;52.214;21.238;2022-10-24T00:46:48;100473.27;;;12.74;73.99
56582;BME280;42463;52.214;21.238;2022-10-24T00:49:15;100475.83;;;12.74;74.27
56582;BME280;42463;52.214;21.238;2022-10-24T00:51:42;100471.53;;;12.75;74.21
56582;BME280;42463;52.214;21.238;2022-10-24T00:54:11;100471.31;;;12.77;74.37
56582;BME280;42463;52.214;21.238;2022-10-24T00:56:40;100468.23;;;12.78;74.20
56582;BME280;42463;52.214;21.238;2022-10-24T00:59:08;100462.83;;;12.77;74.12
56582;BME280;42463;52.214;21.238;2022-10-24T01:01:51;100454.88;;;12.77;74.31
56582;BME280;42463;52.214;21.238;2022-10-24T01:04:15;100442.73;;;12.79;74.45
56582;BME280;42463;52.214;21.238;2022-10-24T01:06:48;100445.90;;;12.80;74.12
56582;BME280;42463;52.214;21.238;2022-10-24T01:09:29;100442.69;;;12.78;73.97
56582;BME280;42463;52.214;21.238;2022-10-24T01:12:05;100431.41;;;12.78;74.13
56582;BME280;42463;52.214;21.238;2022-10-24T01:14:43;100427.88;;;12.79;74.07
56582;BME280;42463;52.214;21.238;2022-10-24T01:17:14;100427.77;;;12.81;74.07
56582;BME280;42463;52.214;21.238;2022-10-24T01:22:33;100432.51;;;12.80;74.01
56582;BME280;42463;52.214;21.238;2022-10-24T01:25:10;100428.64;;;12.79;73.80
56582;BME280;42463;52.214;21.238;2022-10-24T01:27:47;100428.36;;;12.77;73.70
56582;BME280;42463;52.214;21.238;2022-10-24T01:30:19;100425.14;;;12.75;73.88
56582;BME280;42463;52.214;21.238;2022-10-24T01:32:50;100421.39;;;12.75;73.64
56582;BME280;42463;52.214;21.238;2022-10-24T01:35:26;100422.42;;;12.75;73.58
56582;BME280;42463;52.214;21.238;2022-10-24T01:38:02;100415.83;;;12.73;73.75
56582;BME280;42463;52.214;21.238;2022-10-24T01:40:32;100413.88;;;12.74;73.66
56582;BME280;42463;52.214;21.238;2022-10-24T01:43:02;100409.08;;;12.75;73.67
56582;BME280;42463;52.214;21.238;2022-10-24T01:45:32;100403.86;;;12.75;73.51
56582;BME280;42463;52.214;21.238;2022-10-24T01:47:58;100402.29;;;12.78;73.59
56582;BME280;42463;52.214;21.238;2022-10-24T01:50:26;100397.98;;;12.80;73.32
56582;BME280;42463;52.214;21.238;2022-10-24T01:52:52;100400.33;;;12.80;73.13
56582;BME280;42463;52.214;21.238;2022-10-24T01:55:19;100403.38;;;12.79;73.08
56582;BME280;42463;52.214;21.238;2022-10-24T01:57:44;100398.09;;;12.78;73.00
56582;BME280;42463;52.214;21.238;2022-10-24T02:00:16;100396.02;;;12.78;72.75
56582;BME280;42463;52.214;21.238;2022-10-24T02:02:43;100400.05;;;12.75;72.75
56582;BME280;42463;52.214;21.238;2022-10-24T02:05:13;100399.22;;;12.72;72.56
56582;BME280;42463;52.214;21.238;2022-10-24T02:07:40;100395.95;;;12.69;72.73
56582;BME280;42463;52.214;21.238;2022-10-24T02:10:09;100389.96;;;12.68;72.76
56582;BME280;42463;52.214;21.238;2022-10-24T02:12:38;100386.59;;;12.67;72.88
56582;BME280;42463;52.214;21.238;2022-10-24T02:15:09;100384.02;;;12.68;72.58
56582;BME280;42463;52.214;21.238;2022-10-24T02:17:36;100372.86;;;12.66;72.58
56582;BME280;42463;52.214;21.238;2022-10-24T02:20:00;100360.13;;;12.64;72.64
56582;BME280;42463;52.214;21.238;2022-10-24T02:22:29;100354.62;;;12.63;72.52
56582;BME280;42463;52.214;21.238;2022-10-24T02:25:01;100349.55;;;12.63;72.32
56582;BME280;42463;52.214;21.238;2022-10-24T02:27:30;100346.34;;;12.59;72.19
56582;BME280;42463;52.214;21.238;2022-10-24T02:29:59;100343.06;;;12.54;72.19
56582;BME280;42463;52.214;21.238;2022-10-24T02:32:29;100344.15;;;12.50;72.35
56582;BME280;42463;52.214;21.238;2022-10-24T02:34:55;100341.61;;;12.47;72.47
56582;BME280;42463;52.214;21.238;2022-10-24T02:37:22;100345.74;;;12.47;72.54
56582;BME280;42463;52.214;21.238;2022-10-24T02:39:50;100348.13;;;12.43;72.39
56582;BME280;42463;52.214;21.238;2022-10-24T02:42:16;100345.84;;;12.41;72.78
56582;BME280;42463;52.214;21.238;2022-10-24T02:44:44;100344.75;;;12.41;72.84
56582;BME280;42463;52.214;21.238;2022-10-24T02:47:12;100345.29;;;12.42;72.50
56582;BME280;42463;52.214;21.238;2022-10-24T02:49:38;100346.33;;;12.40;72.56
56582;BME280;42463;52.214;21.238;2022-10-24T02:52:03;100349.25;;;12.37;72.54
56582;BME280;42463;52.214;21.238;2022-10-24T02:54:28;100350.29;;;12.35;72.63
56582;BME280;42463;52.214;21.238;2022-10-24T02:56:55;100349.51;;;12.34;72.80
56582;BME280;42463;52.214;21.238;2022-10-24T02:59:21;100357.23;;;12.32;72.67
56582;BME280;42463;52.214;21.238;2022-10-24T03:01:45;100358.15;;;12.31;72.80
56582;BME280;42463;52.214;21.238;2022-10-24T03:04:09;100355.98;;;12.31;73.06
56582;BME280;42463;52.214;21.238;2022-10-24T03:06:34;100350.48;;;12.32;73.15
56582;BME280;42463;52.214;21.238;2022-10-24T03:08:59;100350.23;;;12.33;73.32
56582;BME280;42463;52.214;21.238;2022-10-24T03:11:24;100349.63;;;12.34;73.33
56582;BME280;42463;52.214;21.238;2022-10-24T03:13:48;100349.14;;;12.36;73.40
56582;BME280;42463;52.214;21.238;2022-10-24T03:16:13;100341.64;;;12.37;73.35
56582;BME280;42463;52.214;21.238;2022-10-24T03:18:37;100334.19;;;12.39;73.44
56582;BME280;42463;52.214;21.238;2022-10-24T03:21:01;100333.00;;;12.41;73.53
56582;BME280;42463;52.214;21.238;2022-10-24T03:23:26;100331.30;;;12.41;73.78
56582;BME280;42463;52.214;21.238;2022-10-24T03:25:50;100329.45;;;12.40;73.57
56582;BME280;42463;52.214;21.238;2022-10-24T03:28:15;100331.64;;;12.40;73.47
56582;BME280;42463;52.214;21.238;2022-10-24T03:30:39;100331.02;;;12.40;73.53
56582;BME280;42463;52.214;21.238;2022-10-24T03:33:04;100331.73;;;12.39;73.86
56582;BME280;42463;52.214;21.238;2022-10-24T03:35:28;100328.31;;;12.39;73.98
56582;BME280;42463;52.214;21.238;2022-10-24T03:37:52;100325.54;;;12.40;74.22
56582;BME280;42463;52.214;21.238;2022-10-24T03:40:17;100321.08;;;12.42;74.31
56582;BME280;42463;52.214;21.238;2022-10-24T03:42:41;100320.59;;;12.42;74.18
56582;BME280;42463;52.214;21.238;2022-10-24T03:45:08;100321.30;;;12.43;74.19
56582;BME280;42463;52.214;21.238;2022-10-24T03:47:33;100320.65;;;12.45;74.28
56582;BME280;42463;52.214;21.238;2022-10-24T03:49:57;100322.12;;;12.46;74.29
56582;BME280;42463;52.214;21.238;2022-10-24T03:52:21;100323.81;;;12.47;74.37
56582;BME280;42463;52.214;21.238;2022-10-24T03:54:46;100319.73;;;12.46;74.19
56582;BME280;42463;52.214;21.238;2022-10-24T03:57:10;100318.91;;;12.45;74.33
56582;BME280;42463;52.214;21.238;2022-10-24T03:59:35;100316.52;;;12.45;74.25
56582;BME280;42463;52.214;21.238;2022-10-24T04:01:59;100310.27;;;12.46;74.45
56582;BME280;42463;52.214;21.238;2022-10-24T04:04:25;100304.98;;;12.47;74.37
56582;BME280;42463;52.214;21.238;2022-10-24T04:06:50;100305.64;;;12.47;74.32
56582;BME280;42463;52.214;21.238;2022-10-24T04:09:14;100304.39;;;12.46;74.35
56582;BME280;42463;52.214;21.238;2022-10-24T04:11:38;100308.04;;;12.48;74.38
56582;BME280;42463;52.214;21.238;2022-10-24T04:14:03;100303.52;;;12.48;74.27
56582;BME280;42463;52.214;21.238;2022-10-24T04:16:28;100306.55;;;12.47;74.25
56582;BME280;42463;52.214;21.238;2022-10-24T04:18:52;100305.95;;;12.45;74.21
56582;BME280;42463;52.214;21.238;2022-10-24T04:21:17;100308.02;;;12.45;74.18
56582;BME280;42463;52.214;21.238;2022-10-24T04:23:41;100303.84;;;12.45;74.48
56582;BME280;42463;52.214;21.238;2022-10-24T04:26:06;100303.02;;;12.45;74.23
56582;BME280;42463;52.214;21.238;2022-10-24T04:28:31;100296.71;;;12.46;74.20
56582;BME280;42463;52.214;21.238;2022-10-24T04:30:58;100287.30;;;12.46;73.97
56582;BME280;42463;52.214;21.238;2022-10-24T04:33:22;100280.71;;;12.44;74.21
56582;BME280;42463;52.214;21.238;2022-10-24T04:35:49;100279.08;;;12.43;74.25
56582;BME280;42463;52.214;21.238;2022-10-24T04:38:14;100276.58;;;12.45;74.53
56582;BME280;42463;52.214;21.238;2022-10-24T04:40:38;100276.36;;;12.47;74.57
56582;BME280;42463;52.214;21.238;2022-10-24T04:43:03;100272.91;;;12.49;74.22
56582;BME280;42463;52.214;21.238;2022-10-24T04:45:27;100267.40;;;12.49;74.43
56582;BME280;42463;52.214;21.238;2022-10-24T04:47:51;100260.67;;;12.50;74.35
56582;BME280;42463;52.214;21.238;2022-10-24T04:50:15;100251.14;;;12.51;74.11
56582;BME280;42463;52.214;21.238;2022-10-24T04:52:40;100245.92;;;12.51;74.26
56582;BME280;42463;52.214;21.238;2022-10-24T04:55:07;100240.38;;;12.51;74.36
56582;BME280;42463;52.214;21.238;2022-10-24T04:57:31;100235.80;;;12.52;74.39
56582;BME280;42463;52.214;21.238;2022-10-24T04:59:55;100235.95;;;12.54;74.26
56582;BME280;42463;52.214;21.238;2022-10-24T05:02:20;100236.78;;;12.55;74.11
56582;BME280;42463;52.214;21.238;2022-10-24T05:04:44;100234.71;;;12.56;74.31
56582;BME280;42463;52.214;21.238;2022-10-24T05:07:09;100238.04;;;12.58;74.17
56582;BME280;42463;52.214;21.238;2022-10-24T05:09:33;100237.27;;;12.57;74.13
56582;BME280;42463;52.214;21.238;2022-10-24T05:11:58;100231.39;;;12.59;74.16
56582;BME280;42463;52.214;21.238;2022-10-24T05:14:24;100228.45;;;12.60;74.23
56582;BME280;42463;52.214;21.238;2022-10-24T05:16:49;100225.68;;;12.61;74.22
56582;BME280;42463;52.214;21.238;2022-10-24T05:19:13;100220.19;;;12.62;74.12
56582;BME280;42463;52.214;21.238;2022-10-24T05:21:38;100220.30;;;12.62;73.93
56582;BME280;42463;52.214;21.238;2022-10-24T05:24:02;100221.54;;;12.62;74.23
56582;BME280;42463;52.214;21.238;2022-10-24T05:26:27;100225.78;;;12.63;74.26
56582;BME280;42463;52.214;21.238;2022-10-24T05:28:51;100222.80;;;12.63;74.04
56582;BME280;42463;52.214;21.238;2022-10-24T05:31:16;100215.61;;;12.63;74.11
56582;BME280;42463;52.214;21.238;2022-10-24T05:33:40;100216.70;;;12.63;74.03
56582;BME280;42463;52.214;21.238;2022-10-24T05:36:07;100218.98;;;12.62;74.10
56582;BME280;42463;52.214;21.238;2022-10-24T05:38:31;100213.77;;;12.61;74.12
56582;BME280;42463;52.214;21.238;2022-10-24T05:40:55;100204.02;;;12.62;73.93
56582;BME280;42463;52.214;21.238;2022-10-24T05:43:20;100197.98;;;12.63;74.00
56582;BME280;42463;52.214;21.238;2022-10-24T05:45:48;100194.00;;;12.64;74.01
56582;BME280;42463;52.214;21.238;2022-10-24T05:48:12;100194.43;;;12.66;74.00
56582;BME280;42463;52.214;21.238;2022-10-24T05:50:37;100200.64;;;12.66;73.88
56582;BME280;42463;52.214;21.238;2022-10-24T05:53:02;100199.05;;;12.67;73.87
56582;BME280;42463;52.214;21.238;2022-10-24T05:55:27;100207.65;;;12.67;73.95
56582;BME280;42463;52.214;21.238;2022-10-24T05:57:53;100216.81;;;12.67;73.81
56582;BME280;42463;52.214;21.238;2022-10-24T06:00:17;100225.56;;;12.65;73.78
56582;BME280;42463;52.214;21.238;2022-10-24T06:02:42;100219.69;;;12.63;73.77
56582;BME280;42463;52.214;21.238;2022-10-24T06:05:08;100218.94;;;12.61;73.82
56582;BME280;42463;52.214;21.238;2022-10-24T06:07:34;100213.16;;;12.59;73.91
56582;BME280;42463;52.214;21.238;2022-10-24T06:09:59;100210.92;;;12.61;74.19
56582;BME280;42463;52.214;21.238;2022-10-24T06:12:24;100210.92;;;12.63;74.04
56582;BME280;42463;52.214;21.238;2022-10-24T06:14:49;100211.20;;;12.64;73.92
56582;BME280;42463;52.214;21.238;2022-10-24T06:17:14;100215.92;;;12.66;74.21
56582;BME280;42463;52.214;21.238;2022-10-24T06:19:38;100220.39;;;12.68;74.16
56582;BME280;42463;52.214;21.238;2022-10-24T06:22:02;100217.56;;;12.69;74.33
56582;BME280;42463;52.214;21.238;2022-10-24T06:24:26;100230.09;;;12.71;74.38
56582;BME280;42463;52.214;21.238;2022-10-24T06:26:51;100237.60;;;12.71;74.18
56582;BME280;42463;52.214;21.238;2022-10-24T06:29:16;100242.12;;;12.70;74.17
56582;BME280;42463;52.214;21.238;2022-10-24T06:31:38;100238.58;;;12.70;74.11
56582;BME280;42463;52.214;21.238;2022-10-24T06:34:02;100232.38;;;12.71;74.59
56582;BME280;42463;52.214;21.238;2022-10-24T06:36:27;100240.20;;;12.75;74.87
56582;BME280;42463;52.214;21.238;2022-10-24T06:38:51;100239.23;;;12.77;74.78
56582;BME280;42463;52.214;21.238;2022-10-24T06:41:17;100235.36;;;12.80;75.16
56582;BME280;42463;52.214;21.238;2022-10-24T06:43:42;100233.19;;;12.85;74.92
56582;BME280;42463;52.214;21.238;2022-10-24T06:46:08;100223.98;;;12.89;75.01
56582;BME280;42463;52.214;21.238;2022-10-24T06:48:33;100221.41;;;12.91;75.00
56582;BME280;42463;52.214;21.238;2022-10-24T06:50:57;100221.35;;;12.93;74.93
56582;BME280;42463;52.214;21.238;2022-10-24T06:53:22;100219.06;;;12.93;75.09
56582;BME280;42463;52.214;21.238;2022-10-24T06:55:47;100215.35;;;12.94;74.97
56582;BME280;42463;52.214;21.238;2022-10-24T06:58:11;100209.53;;;12.96;75.00
56582;BME280;42463;52.214;21.238;2022-10-24T07:00:37;100206.27;;;12.96;74.97
56582;BME280;42463;52.214;21.238;2022-10-24T07:03:02;100216.99;;;12.98;74.95
56582;BME280;42463;52.214;21.238;2022-10-24T07:05:26;100235.55;;;12.98;74.98
56582;BME280;42463;52.214;21.238;2022-10-24T07:07:51;100255.65;;;12.99;74.87
56582;BME280;42463;52.214;21.238;2022-10-24T07:10:16;100273.89;;;13.00;74.85
56582;BME280;42463;52.214;21.238;2022-10-24T07:12:40;100275.98;;;13.00;74.92
56582;BME280;42463;52.214;21.238;2022-10-24T07:15:07;100282.34;;;13.00;75.07
56582;BME280;42463;52.214;21.238;2022-10-24T07:17:32;100273.23;;;13.02;74.98
56582;BME280;42463;52.214;21.238;2022-10-24T07:20:01;100269.54;;;13.03;74.98
56582;BME280;42463;52.214;21.238;2022-10-24T07:22:26;100274.39;;;13.03;74.83
56582;BME280;42463;52.214;21.238;2022-10-24T07:24:54;100274.00;;;13.04;75.04
56582;BME280;42463;52.214;21.238;2022-10-24T07:27:18;100272.85;;;13.08;75.23
56582;BME280;42463;52.214;21.238;2022-10-24T07:29:43;100279.98;;;13.10;75.16
56582;BME280;42463;52.214;21.238;2022-10-24T07:32:09;100287.50;;;13.11;74.96
56582;BME280;42463;52.214;21.238;2022-10-24T07:34:34;100292.52;;;13.11;74.95
56582;BME280;42463;52.214;21.238;2022-10-24T07:36:59;100287.18;;;13.12;75.26
56582;BME280;42463;52.214;21.238;2022-10-24T07:39:27;100283.09;;;13.14;74.99
56582;BME280;42463;52.214;21.238;2022-10-24T07:41:51;100285.54;;;13.13;75.02
56582;BME280;42463;52.214;21.238;2022-10-24T07:44:15;100281.02;;;13.13;74.92
56582;BME280;42463;52.214;21.238;2022-10-24T07:46:40;100275.30;;;13.14;74.82
56582;BME280;42463;52.214;21.238;2022-10-24T07:49:05;100263.59;;;13.15;74.92
56582;BME280;42463;52.214;21.238;2022-10-24T07:51:31;100264.20;;;13.19;74.81
56582;BME280;42463;52.214;21.238;2022-10-24T07:53:57;100258.32;;;13.21;74.72
56582;BME280;42463;52.214;21.238;2022-10-24T07:56:21;100240.72;;;13.23;74.56
56582;BME280;42463;52.214;21.238;2022-10-24T07:58:47;100230.63;;;13.26;74.64
56582;BME280;42463;52.214;21.238;2022-10-24T08:01:14;100229.80;;;13.27;74.40
56582;BME280;42463;52.214;21.238;2022-10-24T08:03:40;100220.86;;;13.29;74.63
56582;BME280;42463;52.214;21.238;2022-10-24T08:06:07;100202.77;;;13.31;74.53
56582;BME280;42463;52.214;21.238;2022-10-24T08:08:32;100220.25;;;13.34;74.70
56582;BME280;42463;52.214;21.238;2022-10-24T08:10:57;100239.70;;;13.34;74.41
56582;BME280;42463;52.214;21.238;2022-10-24T08:13:22;100235.56;;;13.33;74.45
56582;BME280;42463;52.214;21.238;2022-10-24T08:15:47;100236.44;;;13.34;74.51
56582;BME280;42463;52.214;21.238;2022-10-24T08:18:11;100233.88;;;13.34;74.66
56582;BME280;42463;52.214;21.238;2022-10-24T08:20:35;100231.30;;;13.36;74.59
56582;BME280;42463;52.214;21.238;2022-10-24T08:23:00;100220.56;;;13.37;74.82
56582;BME280;42463;52.214;21.238;2022-10-24T08:25:24;100222.52;;;13.39;74.82
56582;BME280;42463;52.214;21.238;2022-10-24T08:27:48;100225.95;;;13.41;74.67
56582;BME280;42463;52.214;21.238;2022-10-24T08:30:15;100221.91;;;13.42;74.74
56582;BME280;42463;52.214;21.238;2022-10-24T08:32:42;100223.54;;;13.43;74.38
56582;BME280;42463;52.214;21.238;2022-10-24T08:35:08;100221.08;;;13.45;74.51
56582;BME280;42463;52.214;21.238;2022-10-24T08:37:35;100218.02;;;13.47;74.61
56582;BME280;42463;52.214;21.238;2022-10-24T08:40:00;100227.66;;;13.50;74.62
56582;BME280;42463;52.214;21.238;2022-10-24T08:42:27;100225.22;;;13.53;74.67
56582;BME280;42463;52.214;21.238;2022-10-24T08:44:51;100218.36;;;13.55;74.69
56582;BME280;42463;52.214;21.238;2022-10-24T08:47:21;100214.16;;;13.57;74.68
56582;BME280;42463;52.214;21.238;2022-10-24T08:49:53;100212.34;;;13.58;74.42
56582;BME280;42463;52.214;21.238;2022-10-24T08:52:25;100219.42;;;13.60;74.68
56582;BME280;42463;52.214;21.238;2022-10-24T08:54:52;100215.77;;;13.60;74.46
56582;BME280;42463;52.214;21.238;2022-10-24T08:57:20;100220.39;;;13.63;74.69
56582;BME280;42463;52.214;21.238;2022-10-24T08:59:46;100217.06;;;13.63;74.60
56582;BME280;42463;52.214;21.238;2022-10-24T09:02:18;100222.23;;;13.64;74.38
56582;BME280;42463;52.214;21.238;2022-10-24T09:04:48;100228.07;;;13.65;74.54
56582;BME280;42463;52.214;21.238;2022-10-24T09:07:18;100231.89;;;13.63;74.47
56582;BME280;42463;52.214;21.238;2022-10-24T09:09:46;100230.70;;;13.63;74.63
56582;BME280;42463;52.214;21.238;2022-10-24T09:12:15;100228.84;;;13.62;74.53
56582;BME280;42463;52.214;21.238;2022-10-24T09:14:42;100232.05;;;13.64;74.52
56582;BME280;42463;52.214;21.238;2022-10-24T09:17:13;100235.59;;;13.64;74.64
56582;BME280;42463;52.214;21.238;2022-10-24T09:19:39;100233.13;;;13.67;74.53
56582;BME280;42463;52.214;21.238;2022-10-24T09:22:09;100227.52;;;13.68;74.48
56582;BME280;42463;52.214;21.238;2022-10-24T09:24:38;100222.58;;;13.72;74.79
56582;BME280;42463;52.214;21.238;2022-10-24T09:27:09;100226.48;;;13.79;74.58
56582;BME280;42463;52.214;21.238;2022-10-24T09:29:34;100219.82;;;13.81;74.33
56582;BME280;42463;52.214;21.238;2022-10-24T09:31:59;100215.80;;;13.86;74.38
56582;BME280;42463;52.214;21.238;2022-10-24T09:34:24;100217.59;;;13.89;74.01
56582;BME280;42463;52.214;21.238;2022-10-24T09:36:49;100219.64;;;13.95;74.23
56582;BME280;42463;52.214;21.238;2022-10-24T09:39:29;100218.28;;;14.02;74.44
56582;BME280;42463;52.214;21.238;2022-10-24T09:41:54;100217.95;;;14.13;74.54
56582;BME280;42463;52.214;21.238;2022-10-24T09:44:31;100217.96;;;14.18;74.35
56582;BME280;42463;52.214;21.238;2022-10-24T09:46:56;100212.91;;;14.23;74.09
56582;BME280;42463;52.214;21.238;2022-10-24T09:49:31;100202.49;;;14.29;74.04
56582;BME280;42463;52.214;21.238;2022-10-24T09:52:06;100200.71;;;14.34;73.67
56582;BME280;42463;52.214;21.238;2022-10-24T09:54:32;100195.45;;;14.37;73.68
56582;BME280;42463;52.214;21.238;2022-10-24T09:57:03;100189.14;;;14.40;73.79
56582;BME280;42463;52.214;21.238;2022-10-24T09:59:36;100192.21;;;14.42;73.41
56582;BME280;42463;52.214;21.238;2022-10-24T10:02:24;100194.63;;;14.43;73.26
56582;BME280;42463;52.214;21.238;2022-10-24T10:04:57;100195.73;;;14.46;73.47
56582;BME280;42463;52.214;21.238;2022-10-24T10:07:34;100192.59;;;14.51;73.58
56582;BME280;42463;52.214;21.238;2022-10-24T10:10:00;100190.97;;;14.54;73.34
56582;BME280;42463;52.214;21.238;2022-10-24T10:12:30;100190.58;;;14.59;73.33
56582;BME280;42463;52.214;21.238;2022-10-24T10:14:57;100190.54;;;14.63;73.20
56582;BME280;42463;52.214;21.238;2022-10-24T10:17:24;100193.37;;;14.65;72.59
56582;BME280;42463;52.214;21.238;2022-10-24T10:19:51;100188.61;;;14.66;72.97
56582;BME280;42463;52.214;21.238;2022-10-24T10:22:24;100187.23;;;14.67;72.82
56582;BME280;42463;52.214;21.238;2022-10-24T10:24:49;100186.92;;;14.70;72.86
56582;BME280;42463;52.214;21.238;2022-10-24T10:27:29;100193.11;;;14.75;72.82
56582;BME280;42463;52.214;21.238;2022-10-24T10:30:14;100193.99;;;14.80;72.92
56582;BME280;42463;52.214;21.238;2022-10-24T10:32:42;100195.95;;;14.86;72.99
56582;BME280;42463;52.214;21.238;2022-10-24T10:35:13;100195.95;;;14.92;72.84
56582;BME280;42463;52.214;21.238;2022-10-24T10:37:42;100187.00;;;14.96;72.82
56582;BME280;42463;52.214;21.238;2022-10-24T10:40:20;100184.41;;;15.05;72.57
56582;BME280;42463;52.214;21.238;2022-10-24T10:43:00;100189.36;;;15.11;72.16
56582;BME280;42463;52.214;21.238;2022-10-24T10:45:43;100185.90;;;15.18;71.94
56582;BME280;42463;52.214;21.238;2022-10-24T10:48:23;100178.76;;;15.25;71.56
56582;BME280;42463;52.214;21.238;2022-10-24T10:50:56;100179.84;;;15.36;71.68
56582;BME280;42463;52.214;21.238;2022-10-24T10:53:30;100180.55;;;15.48;71.74
56582;BME280;42463;52.214;21.238;2022-10-24T10:56:04;100186.44;;;15.64;71.78
56582;BME280;42463;52.214;21.238;2022-10-24T10:58:42;100182.69;;;15.79;71.41
56582;BME280;42463;52.214;21.238;2022-10-24T11:01:15;100184.95;;;15.89;70.86
56582;BME280;42463;52.214;21.238;2022-10-24T11:03:48;100190.40;;;15.98;70.44
56582;BME280;42463;52.214;21.238;2022-10-24T11:06:24;100192.52;;;16.06;70.25
56582;BME280;42463;52.214;21.238;2022-10-24T11:09:05;100191.29;;;16.12;69.84
56582;BME280;42463;52.214;21.238;2022-10-24T11:11:36;100190.52;;;16.15;69.61
56582;BME280;42463;52.214;21.238;2022-10-24T11:14:16;100189.16;;;16.18;69.20
56582;BME280;42463;52.214;21.238;2022-10-24T11:16:46;100191.44;;;16.20;69.00
56582;BME280;42463;52.214;21.238;2022-10-24T11:19:19;100190.73;;;16.24;69.21
56582;BME280;42463;52.214;21.238;2022-10-24T11:21:45;100187.52;;;16.29;69.28
56582;BME280;42463;52.214;21.238;2022-10-24T11:24:12;100189.75;;;16.31;68.96
56582;BME280;42463;52.214;21.238;2022-10-24T11:26:41;100188.11;;;16.33;69.13
56582;BME280;42463;52.214;21.238;2022-10-24T11:29:14;100183.24;;;16.37;68.98
56582;BME280;42463;52.214;21.238;2022-10-24T11:31:44;100183.98;;;16.41;68.72
56582;BME280;42463;52.214;21.238;2022-10-24T11:34:14;100181.54;;;16.47;68.94
56582;BME280;42463;52.214;21.238;2022-10-24T11:36:45;100179.89;;;16.54;68.95
56582;BME280;42463;52.214;21.238;2022-10-24T11:39:16;100183.61;;;16.57;68.94
56582;BME280;42463;52.214;21.238;2022-10-24T11:41:56;100184.36;;;16.58;68.55
56582;BME280;42463;52.214;21.238;2022-10-24T11:44:32;100185.81;;;16.57;68.68
56582;BME280;42463;52.214;21.238;2022-10-24T11:47:06;100184.84;;;16.59;69.04
56582;BME280;42463;52.214;21.238;2022-10-24T11:49:35;100183.40;;;16.60;68.53
56582;BME280;42463;52.214;21.238;2022-10-24T11:52:15;100179.73;;;16.59;68.66
56582;BME280;42463;52.214;21.238;2022-10-24T11:54:45;100173.54;;;16.66;69.00
56582;BME280;42463;52.214;21.238;2022-10-24T11:57:16;100172.61;;;16.79;69.11
56582;BME280;42463;52.214;21.238;2022-10-24T11:59:42;100174.94;;;17.01;68.96
56582;BME280;42463;52.214;21.238;2022-10-24T12:02:26;100174.45;;;17.17;68.39
56582;BME280;42463;52.214;21.238;2022-10-24T12:05:05;100171.09;;;17.24;67.94
56582;BME280;42463;52.214;21.238;2022-10-24T12:10:42;100171.36;;;17.46;68.12
56582;BME280;42463;52.214;21.238;2022-10-24T12:13:22;100160.81;;;17.99;68.82
56582;BME280;42463;52.214;21.238;2022-10-24T12:15:56;100157.05;;;18.75;67.46
56582;BME280;42463;52.214;21.238;2022-10-24T12:18:29;100154.11;;;19.38;65.42
56582;BME280;42463;52.214;21.238;2022-10-24T12:20:59;100154.25;;;20.01;64.00
56582;BME280;42463;52.214;21.238;2022-10-24T12:23:26;100153.58;;;21.12;63.48
56582;BME280;42463;52.214;21.238;2022-10-24T12:26:02;100148.02;;;22.11;60.96
56582;BME280;42463;52.214;21.238;2022-10-24T12:28:27;100147.76;;;22.96;58.78
56582;BME280;42463;52.214;21.238;2022-10-24T12:31:08;100141.20;;;23.74;56.09
56582;BME280;42463;52.214;21.238;2022-10-24T12:33:35;100134.45;;;24.74;53.76
56582;BME280;42463;52.214;21.238;2022-10-24T12:35:59;100132.04;;;25.44;51.43
56582;BME280;42463;52.214;21.238;2022-10-24T12:41:41;100121.66;;;26.46;48.16
56582;BME280;42463;52.214;21.238;2022-10-24T12:44:42;100119.69;;;26.31;47.62
56582;BME280;42463;52.214;21.238;2022-10-24T12:47:29;100120.30;;;26.33;47.30
56582;BME280;42463;52.214;21.238;2022-10-24T12:49:53;100112.65;;;25.95;46.85
56582;BME280;42463;52.214;21.238;2022-10-24T12:52:59;100107.26;;;25.29;47.52